createdAt,value
2022-09-07T00:00:58.170Z,100032.22
2022-09-07T00:03:26.001Z,100026.81
2022-09-07T00:05:53.269Z,100031.22
2022-09-07T00:08:21.654Z,100031.28
2022-09-07T00:10:55.401Z,100027.75
2022-09-07T00:13:23.229Z,100030.28
2022-09-07T00:15:50.946Z,100035.81
2022-09-07T00:18:18.370Z,100030.47
2022-09-07T00:20:45.568Z,100026.72
2022-09-07T00:23:13.262Z,100019.59
2022-09-07T00:25:40.806Z,100021.66
2022-09-07T00:28:08.549Z,100009.56
2022-09-07T00:30:40.955Z,100021.66
2022-09-07T00:33:08.313Z,100008.53
2022-09-07T00:35:41.990Z,100005.44
2022-09-07T00:38:09.233Z,100003.00
2022-09-07T00:40:36.740Z,100002.50
2022-09-07T00:43:04.435Z,99999.47
2022-09-07T00:45:31.988Z,100009.56
2022-09-07T00:48:01.947Z,100010.22
2022-09-07T00:50:31.452Z,100004.88
2022-09-07T00:53:06.142Z,100008.06
2022-09-07T00:55:33.742Z,100004.22
2022-09-07T00:58:00.985Z,100002.34
2022-09-07T01:00:29.377Z,100001.03
2022-09-07T01:02:58.736Z,99997.16
2022-09-07T01:05:28.180Z,100002.87
2022-09-07T01:07:56.366Z,99998.03
2022-09-07T01:10:25.719Z,99997.81
2022-09-07T01:12:52.987Z,100000.19
2022-09-07T01:15:20.832Z,100002.03
2022-09-07T01:17:56.978Z,100007.97
2022-09-07T01:20:36.818Z,100013.47
2022-09-07T01:23:23.727Z,100004.00
2022-09-07T01:26:06.253Z,99998.97
2022-09-07T01:28:34.481Z,99998.91
2022-09-07T01:31:05.462Z,99998.19
2022-09-07T01:33:38.849Z,99991.63
2022-09-07T01:36:21.099Z,99995.31
2022-09-07T01:38:50.415Z,99992.97
2022-09-07T01:41:18.790Z,99995.75
2022-09-07T01:43:54.661Z,99993.25
2022-09-07T01:46:35.755Z,99993.19
2022-09-07T01:49:10.368Z,99992.41
2022-09-07T01:51:38.988Z,99976.09
2022-09-07T01:54:08.309Z,99974.50
2022-09-07T01:56:36.806Z,99979.31
2022-09-07T01:59:05.023Z,99972.97
2022-09-07T02:01:34.817Z,99979.75
2022-09-07T02:04:07.390Z,99974.03
2022-09-07T02:06:46.619Z,99973.38
2022-09-07T02:09:32.842Z,99969.94
2022-09-07T02:12:03.036Z,99973.09
2022-09-07T02:14:34.134Z,99977.19
2022-09-07T02:17:03.762Z,99970.16
2022-09-07T02:19:33.916Z,99979.28
2022-09-07T02:22:02.971Z,99974.69
2022-09-07T02:24:32.056Z,99978.28
2022-09-07T02:27:03.472Z,99972.66
2022-09-07T02:29:31.186Z,99958.97
2022-09-07T02:31:58.373Z,99963.63
2022-09-07T02:34:25.589Z,99968.16
2022-09-07T02:36:53.223Z,99962.37
2022-09-07T02:39:20.423Z,99960.94
2022-09-07T02:41:47.655Z,99954.56
2022-09-07T02:44:16.565Z,99945.41
2022-09-07T02:46:52.998Z,99949.63
2022-09-07T02:49:25.360Z,99952.25
2022-09-07T02:51:59.524Z,99952.25
2022-09-07T02:54:39.385Z,99953.78
2022-09-07T02:57:25.832Z,99946.94
2022-09-07T02:59:59.522Z,99946.94
2022-09-07T03:02:26.674Z,99947.56
2022-09-07T03:05:26.815Z,99949.38
2022-09-07T03:07:54.022Z,99956.00
2022-09-07T03:10:21.659Z,99951.16
2022-09-07T03:12:49.544Z,99949.38
2022-09-07T03:15:18.389Z,99947.56
2022-09-07T03:17:46.233Z,99946.88
2022-09-07T03:20:13.599Z,99948.59
2022-09-07T03:22:41.238Z,99941.22
2022-09-07T03:25:10.317Z,99943.47
2022-09-07T03:27:37.577Z,99942.84
2022-09-07T03:30:05.521Z,99940.84
2022-09-07T03:32:54.871Z,99943.47
2022-09-07T03:35:24.553Z,99940.78
2022-09-07T03:37:52.506Z,99936.81
2022-09-07T03:40:21.854Z,99945.66
2022-09-07T03:42:50.171Z,99942.13
2022-09-07T03:45:17.817Z,99949.03
2022-09-07T03:47:45.127Z,99952.12
2022-09-07T03:50:12.460Z,99950.97
2022-09-07T03:52:41.081Z,99956.97
2022-09-07T03:55:08.626Z,99957.91
2022-09-07T03:57:36.847Z,99960.84
2022-09-07T04:00:04.853Z,99963.16
2022-09-07T04:02:39.814Z,99960.47
2022-09-07T04:05:08.221Z,99952.66
2022-09-07T04:07:35.520Z,99958.19
2022-09-07T04:10:02.876Z,99957.84
2022-09-07T04:12:30.964Z,99963.56
2022-09-07T04:14:58.145Z,99968.16
2022-09-07T04:17:25.348Z,99966.50
2022-09-07T04:19:52.858Z,99968.47
2022-09-07T04:22:20.060Z,99968.47
2022-09-07T04:24:47.265Z,99969.91
2022-09-07T04:27:14.710Z,99979.09
2022-09-07T04:29:41.953Z,99974.75
2022-09-07T04:32:12.370Z,99973.72
2022-09-07T04:34:42.612Z,99975.72
2022-09-07T04:37:09.963Z,99979.44
2022-09-07T04:39:37.426Z,99982.28
2022-09-07T04:42:04.979Z,100001.66
2022-09-07T04:44:32.154Z,99988.13
2022-09-07T04:46:59.333Z,99991.16
2022-09-07T04:49:26.789Z,99989.06
2022-09-07T04:51:54.018Z,99997.56
2022-09-07T04:54:21.227Z,100001.41
2022-09-07T04:56:48.677Z,100000.72
2022-09-07T04:59:15.843Z,99990.72
2022-09-07T05:01:43.126Z,99995.66
2022-09-07T05:04:11.077Z,99986.84
2022-09-07T05:06:38.457Z,99988.75
2022-09-07T05:09:05.624Z,99985.47
2022-09-07T05:11:33.161Z,99983.88
2022-09-07T05:14:01.763Z,99994.06
2022-09-07T05:16:29.572Z,99987.13
2022-09-07T05:18:57.994Z,99993.75
2022-09-07T05:21:26.112Z,99990.19
2022-09-07T05:23:53.783Z,99996.66
2022-09-07T05:26:22.605Z,100005.88
2022-09-07T05:28:50.440Z,100005.53
2022-09-07T05:31:19.514Z,100003.50
2022-09-07T05:36:36.106Z,100008.31
2022-09-07T05:39:03.821Z,100006.91
2022-09-07T05:41:31.067Z,100007.34
2022-09-07T05:46:47.241Z,100005.81
2022-09-07T05:49:14.419Z,100008.78
2022-09-07T05:51:41.635Z,100005.12
2022-09-07T05:54:10.646Z,100009.56
2022-09-07T05:56:38.600Z,100016.31
2022-09-07T05:59:05.816Z,100009.00
2022-09-07T06:01:35.352Z,100012.56
2022-09-07T06:04:05.497Z,100017.59
2022-09-07T06:06:32.859Z,100013.25
2022-09-07T06:09:00.224Z,100012.72
2022-09-07T06:11:27.779Z,100011.53
2022-09-07T06:13:55.147Z,100018.28
2022-09-07T06:16:22.871Z,100014.56
2022-09-07T06:18:50.466Z,100020.88
2022-09-07T06:21:22.200Z,100023.63
2022-09-07T06:23:49.950Z,100025.78
2022-09-07T06:26:17.801Z,100020.56
2022-09-07T06:28:49.095Z,100016.63
2022-09-07T06:31:18.989Z,100015.59
2022-09-07T06:33:47.679Z,100014.22
2022-09-07T06:36:16.000Z,100004.16
2022-09-07T06:38:43.826Z,100013.84
2022-09-07T06:44:01.738Z,100005.00
2022-09-07T06:49:16.520Z,100010.97
2022-09-07T06:51:43.712Z,100017.28
2022-09-07T06:56:58.616Z,100006.53
2022-09-07T06:59:25.894Z,99998.34
2022-09-07T07:01:53.101Z,100003.53
2022-09-07T07:04:20.680Z,100000.63
2022-09-07T07:06:47.961Z,99998.00
2022-09-07T07:09:15.264Z,100001.34
2022-09-07T07:11:44.719Z,100008.84
2022-09-07T07:14:15.470Z,100011.19
2022-09-07T07:16:43.208Z,100012.66
2022-09-07T07:19:10.535Z,100007.91
2022-09-07T07:22:01.963Z,100008.41
2022-09-07T07:24:25.380Z,100015.28
2022-09-07T07:26:52.720Z,100012.81
2022-09-07T07:29:22.872Z,100013.53
2022-09-07T07:31:52.581Z,100006.81
2022-09-07T07:34:20.085Z,100006.16
2022-09-07T07:36:47.655Z,100011.56
2022-09-07T07:42:03.387Z,100014.38
2022-09-07T07:44:33.381Z,100011.53
2022-09-07T07:47:00.530Z,100016.56
2022-09-07T07:49:27.761Z,100017.28
2022-09-07T07:54:43.164Z,100019.66
2022-09-07T07:57:10.667Z,100006.63
2022-09-07T07:59:38.027Z,100006.94
2022-09-07T08:02:06.161Z,100007.31
2022-09-07T08:04:34.152Z,100001.12
2022-09-07T08:07:05.546Z,100004.50
2022-09-07T08:09:38.184Z,100004.38
2022-09-07T08:12:05.377Z,100002.87
2022-09-07T08:14:32.509Z,100005.06
2022-09-07T08:17:00.294Z,100013.72
2022-09-07T08:19:27.969Z,100012.34
2022-09-07T08:21:55.203Z,100005.50
2022-09-07T08:24:22.605Z,99996.44
2022-09-07T08:26:49.726Z,99993.84
2022-09-07T08:29:17.500Z,99991.59
2022-09-07T08:31:45.014Z,99998.91
2022-09-07T08:34:12.199Z,99999.78
2022-09-07T08:36:39.323Z,99998.19
2022-09-07T08:39:06.718Z,100000.63
2022-09-07T08:41:52.622Z,99993.87
2022-09-07T08:44:38.672Z,99997.03
2022-09-07T08:47:15.219Z,99998.41
2022-09-07T08:49:50.106Z,99998.53
2022-09-07T08:52:25.395Z,99993.97
2022-09-07T08:55:05.655Z,99989.53
2022-09-07T08:57:33.667Z,99985.03
2022-09-07T09:00:05.070Z,99991.81
2022-09-07T09:02:36.502Z,99987.94
2022-09-07T09:05:17.416Z,99986.94
2022-09-07T09:08:11.491Z,99975.88
2022-09-07T09:10:53.543Z,99979.41
2022-09-07T09:13:40.902Z,99992.97
2022-09-07T09:16:10.447Z,99993.03
2022-09-07T09:18:49.688Z,99985.31
2022-09-07T09:21:18.751Z,99983.41
2022-09-07T09:23:46.748Z,99985.31
2022-09-07T09:26:18.417Z,99985.22
2022-09-07T09:28:45.806Z,99985.59
2022-09-07T09:31:15.673Z,99975.56
2022-09-07T09:33:42.876Z,99975.09
2022-09-07T09:36:23.690Z,99984.06
2022-09-07T09:38:50.822Z,99970.56
2022-09-07T09:41:18.212Z,99969.28
2022-09-07T09:43:48.842Z,99967.22
2022-09-07T09:46:36.414Z,99974.81
2022-09-07T09:49:05.512Z,99972.84
2022-09-07T09:54:24.890Z,99960.72
2022-09-07T09:56:52.244Z,99953.22
2022-09-07T10:05:32.274Z,99951.16
2022-09-07T10:07:59.640Z,99947.06
2022-09-07T10:10:28.023Z,99950.63
2022-09-07T10:12:55.862Z,99949.13
2022-09-07T10:15:30.210Z,99948.28
2022-09-07T10:17:58.247Z,99946.72
2022-09-07T10:20:31.981Z,99940.13
2022-09-07T10:22:59.727Z,99942.75
2022-09-07T10:25:30.064Z,99941.06
2022-09-07T10:28:03.041Z,99930.00
2022-09-07T10:30:33.018Z,99941.56
2022-09-07T10:33:06.557Z,99942.25
2022-09-07T10:35:34.810Z,99941.91
2022-09-07T10:38:02.019Z,99932.75
2022-09-07T10:40:31.784Z,99933.97
2022-09-07T10:43:22.294Z,99933.97
2022-09-07T10:45:49.588Z,99929.97
2022-09-07T10:48:37.361Z,99935.88
2022-09-07T10:51:13.712Z,99934.31
2022-09-07T10:54:29.351Z,99921.31
2022-09-07T10:56:47.749Z,99934.59
2022-09-07T10:59:17.982Z,99922.63
2022-09-07T11:01:51.728Z,99920.84
2022-09-07T11:04:26.493Z,99922.38
2022-09-07T11:06:55.643Z,99918.56
2022-09-07T11:09:48.505Z,99920.59
2022-09-07T11:12:19.282Z,99919.41
2022-09-07T11:14:47.323Z,99920.03
2022-09-07T11:17:18.121Z,99915.75
2022-09-07T11:19:47.522Z,99915.22
2022-09-07T11:22:20.109Z,99908.34
2022-09-07T11:25:29.158Z,99906.31
2022-09-07T11:27:39.085Z,99907.84
2022-09-07T11:30:12.782Z,99906.09
2022-09-07T11:32:42.349Z,99909.94
2022-09-07T11:35:12.772Z,99906.09
2022-09-07T11:37:42.335Z,99908.78
2022-09-07T11:40:12.667Z,99906.44
2022-09-07T11:42:50.516Z,99898.91
2022-09-07T11:45:25.626Z,99899.19
2022-09-07T11:47:57.910Z,99896.16
2022-09-07T11:50:25.395Z,99900.75
2022-09-07T11:52:57.723Z,99897.13
2022-09-07T11:55:27.492Z,99897.53
2022-09-07T11:58:00.196Z,99892.75
2022-09-07T12:00:31.514Z,99884.28
2022-09-07T12:03:06.925Z,99892.06
2022-09-07T12:05:50.160Z,99886.37
2022-09-07T12:08:29.456Z,99886.19
2022-09-07T12:11:15.035Z,99879.34
2022-09-07T12:13:53.280Z,99874.47
2022-09-07T12:16:23.579Z,99873.59
2022-09-07T12:18:50.946Z,99883.88
2022-09-07T12:21:36.850Z,99871.00
2022-09-07T12:24:04.370Z,99873.31
2022-09-07T12:26:34.840Z,99873.59
2022-09-07T12:29:01.935Z,99873.78
2022-09-07T12:31:57.413Z,99875.34
2022-09-07T12:34:48.442Z,99868.66
2022-09-07T12:37:15.758Z,99878.34
2022-09-07T12:39:45.377Z,99877.53
2022-09-07T12:45:19.798Z,99870.97
2022-09-07T12:47:54.129Z,99864.78
2022-09-07T12:53:14.319Z,99850.56
2022-09-07T12:58:36.777Z,99855.97
2022-09-07T13:01:22.685Z,99847.28
2022-09-07T13:04:08.567Z,99866.31
2022-09-07T13:09:34.991Z,99851.53
2022-09-07T13:12:04.922Z,99842.00
2022-09-07T13:14:34.498Z,99838.44
2022-09-07T13:17:21.142Z,99842.88
2022-09-07T13:20:01.200Z,99835.59
2022-09-07T13:22:37.896Z,99843.66
2022-09-07T13:25:21.950Z,99833.50
2022-09-07T13:27:53.063Z,99828.88
2022-09-07T13:30:29.225Z,99830.12
2022-09-07T13:33:19.885Z,99828.75
2022-09-07T13:35:48.219Z,99823.59
2022-09-07T13:38:15.382Z,99811.37
2022-09-07T13:40:44.985Z,99821.78
2022-09-07T13:43:16.547Z,99812.16
2022-09-07T13:45:46.882Z,99824.91
2022-09-07T13:48:20.219Z,99808.88
2022-09-07T13:51:03.555Z,99809.75
2022-09-07T13:53:34.370Z,99803.72
2022-09-07T13:56:01.399Z,99803.78
2022-09-07T13:58:41.332Z,99798.34
2022-09-07T14:01:16.249Z,99797.75
2022-09-07T14:03:47.988Z,99794.16
2022-09-07T14:06:21.033Z,99790.91
2022-09-07T14:08:52.429Z,99791.81
2022-09-07T14:11:23.376Z,99789.84
2022-09-07T14:14:08.594Z,99788.53
2022-09-07T14:16:35.883Z,99792.72
2022-09-07T14:19:09.465Z,99795.37
2022-09-07T14:21:36.744Z,99791.28
2022-09-07T14:24:05.476Z,99793.38
2022-09-07T14:26:32.830Z,99789.81
2022-09-07T14:29:01.545Z,99796.06
2022-09-07T14:31:29.058Z,99795.25
2022-09-07T14:33:57.176Z,99786.25
2022-09-07T14:36:44.564Z,99789.06
2022-09-07T14:39:13.565Z,99782.69
2022-09-07T14:41:41.991Z,99780.81
2022-09-07T14:44:35.589Z,99792.16
2022-09-07T14:47:04.205Z,99779.72
2022-09-07T14:49:31.526Z,99787.16
2022-09-07T14:52:00.758Z,99784.28
2022-09-07T14:54:30.797Z,99789.84
2022-09-07T14:57:01.107Z,99784.59
2022-09-07T14:59:39.163Z,99778.66
2022-09-07T15:02:18.106Z,99778.22
2022-09-07T15:04:46.075Z,99785.25
2022-09-07T15:07:29.262Z,99781.56
2022-09-07T15:09:56.706Z,99776.34
2022-09-07T15:12:36.467Z,99781.69
2022-09-07T15:15:10.563Z,99782.84
2022-09-07T15:17:45.278Z,99785.13
2022-09-07T15:20:30.530Z,99775.25
2022-09-07T15:22:58.017Z,99770.56
2022-09-07T15:25:25.802Z,99768.66
2022-09-07T15:27:53.979Z,99766.53
2022-09-07T15:30:21.130Z,99772.22
2022-09-07T15:32:49.344Z,99769.22
2022-09-07T15:35:16.715Z,99776.06
2022-09-07T15:40:38.025Z,99770.88
2022-09-07T15:43:16.423Z,99778.38
2022-09-07T15:45:47.517Z,99774.44
2022-09-07T15:48:15.311Z,99773.63
2022-09-07T15:50:42.447Z,99773.63
2022-09-07T15:54:07.493Z,99775.09
2022-09-07T15:55:57.123Z,99779.97
2022-09-07T15:58:25.181Z,99788.59
2022-09-07T16:01:51.463Z,99787.06
2022-09-07T16:03:39.911Z,99789.53
2022-09-07T16:06:13.786Z,99786.47
2022-09-07T16:08:42.082Z,99782.94
2022-09-07T16:11:18.000Z,99778.03
2022-09-07T16:13:46.926Z,99781.53
2022-09-07T16:16:18.926Z,99782.47
2022-09-07T16:18:47.200Z,99778.50
2022-09-07T16:21:14.785Z,99779.91
2022-09-07T16:23:43.212Z,99780.19
2022-09-07T16:26:11.025Z,99781.16
2022-09-07T16:28:40.019Z,99783.56
2022-09-07T16:31:08.858Z,99783.75
2022-09-07T16:33:37.203Z,99774.78
2022-09-07T16:36:09.151Z,99765.25
2022-09-07T16:38:44.804Z,99770.50
2022-09-07T16:41:23.319Z,99765.63
2022-09-07T16:43:50.719Z,99759.44
2022-09-07T16:46:18.700Z,99756.81
2022-09-07T16:48:48.087Z,99754.91
2022-09-07T16:51:19.387Z,99748.03
2022-09-07T16:53:46.785Z,99744.81
2022-09-07T16:56:16.548Z,99748.75
2022-09-07T16:58:47.094Z,99740.25
2022-09-07T17:01:16.548Z,99732.72
2022-09-07T17:03:44.128Z,99724.03
2022-09-07T17:06:12.099Z,99731.84
2022-09-07T17:08:39.762Z,99726.09
2022-09-07T17:11:08.502Z,99727.25
2022-09-07T17:13:36.369Z,99732.09
2022-09-07T17:16:07.938Z,99730.28
2022-09-07T17:21:22.870Z,99726.53
2022-09-07T17:23:55.107Z,99739.25
2022-09-07T17:26:26.038Z,99735.69
2022-09-07T17:28:54.461Z,99743.41
2022-09-07T17:34:13.728Z,99751.56
2022-09-07T17:36:40.914Z,99749.78
2022-09-07T17:39:17.683Z,99754.94
2022-09-07T17:41:46.383Z,99759.69
2022-09-07T17:44:13.535Z,99765.94
2022-09-07T17:46:40.775Z,99767.94
2022-09-07T17:49:13.948Z,99768.94
2022-09-07T17:51:41.434Z,99770.16
2022-09-07T17:54:11.626Z,99770.84
2022-09-07T17:56:40.018Z,99771.50
2022-09-07T18:01:55.798Z,99773.94
2022-09-07T18:04:23.763Z,99785.56
2022-09-07T18:06:51.235Z,99788.56
2022-09-07T18:09:20.097Z,99797.94
2022-09-07T18:11:49.419Z,99796.16
2022-09-07T18:14:17.880Z,99792.16
2022-09-07T18:16:45.934Z,99793.94
2022-09-07T18:19:14.055Z,99794.03
2022-09-07T18:21:43.280Z,99801.66
2022-09-07T18:24:13.877Z,99799.62
2022-09-07T18:26:41.516Z,99809.63
2022-09-07T18:29:25.878Z,99798.88
2022-09-07T18:31:55.832Z,99806.81
2022-09-07T18:34:23.644Z,99805.81
2022-09-07T18:36:51.142Z,99797.16
2022-09-07T18:39:19.134Z,99795.53
2022-09-07T18:41:47.423Z,99793.66
2022-09-07T18:47:03.242Z,99799.84
2022-09-07T18:49:41.214Z,99802.34
2022-09-07T18:55:35.245Z,99793.47
2022-09-07T18:58:03.464Z,99793.94
2022-09-07T19:00:31.641Z,99794.06
2022-09-07T19:02:59.717Z,99793.28
2022-09-07T19:08:15.559Z,99796.59
2022-09-07T19:11:06.991Z,99782.34
2022-09-07T19:13:37.808Z,99792.28
2022-09-07T19:16:16.635Z,99779.97
2022-09-07T19:18:49.504Z,99781.38
2022-09-07T19:21:29.285Z,99778.72
2022-09-07T19:23:57.871Z,99782.88
2022-09-07T19:26:26.306Z,99788.09
2022-09-07T19:28:55.212Z,99785.66
2022-09-07T19:31:22.936Z,99783.75
2022-09-07T19:33:54.750Z,99790.69
2022-09-07T19:36:22.958Z,99787.66
2022-09-07T19:41:57.011Z,99784.09
2022-09-07T19:48:16.545Z,99786.69
2022-09-07T19:51:04.569Z,99783.25
2022-09-07T19:53:34.683Z,99783.09
2022-09-07T19:56:12.000Z,99783.09
2022-09-07T19:58:40.814Z,99780.09
2022-09-07T20:01:08.649Z,99783.53
2022-09-07T20:03:38.669Z,99777.78
2022-09-07T20:06:10.653Z,99775.44
2022-09-07T20:08:38.502Z,99780.37
2022-09-07T20:11:08.673Z,99783.81
2022-09-07T20:13:37.250Z,99776.50
2022-09-07T20:16:05.665Z,99775.06
2022-09-07T20:18:34.894Z,99778.94
2022-09-07T20:21:05.468Z,99777.50
2022-09-07T20:23:33.622Z,99776.34
2022-09-07T20:26:08.047Z,99779.25
2022-09-07T20:28:36.863Z,99781.09
2022-09-07T20:31:08.234Z,99772.84
2022-09-07T20:33:35.961Z,99773.13
2022-09-07T20:36:03.693Z,99776.22
2022-09-07T20:38:30.950Z,99772.34
2022-09-07T20:40:59.214Z,99778.75
2022-09-07T20:43:26.436Z,99772.16
2022-09-07T20:45:57.252Z,99779.63
2022-09-07T20:48:24.802Z,99771.16
2022-09-07T20:51:00.272Z,99769.56
2022-09-07T20:53:27.772Z,99765.41
2022-09-07T20:56:02.887Z,99764.78
2022-09-07T20:58:30.877Z,99764.00
2022-09-07T21:00:58.122Z,99760.88
2022-09-07T21:03:25.541Z,99764.78
2022-09-07T21:05:52.926Z,99760.72
2022-09-07T21:08:20.253Z,99768.34
2022-09-07T21:10:47.538Z,99764.66
2022-09-07T21:13:16.341Z,99763.06
2022-09-07T21:15:44.112Z,99758.63
2022-09-07T21:18:16.386Z,99742.50
2022-09-07T21:20:56.920Z,99750.78
2022-09-07T21:23:31.629Z,99752.19
2022-09-07T21:25:59.006Z,99752.84
2022-09-07T21:28:26.579Z,99750.41
2022-09-07T21:30:56.885Z,99757.03
2022-09-07T21:33:24.871Z,99753.62
2022-09-07T21:35:53.071Z,99754.47
2022-09-07T21:38:21.139Z,99755.72
2022-09-07T21:40:48.759Z,99758.72
2022-09-07T21:43:16.393Z,99754.91
2022-09-07T21:45:43.520Z,99758.66
2022-09-07T21:48:10.961Z,99754.84
2022-09-07T21:50:38.108Z,99761.19
2022-09-07T21:53:06.244Z,99757.91
2022-09-07T21:55:34.368Z,99758.03
2022-09-07T21:58:01.541Z,99754.66
2022-09-07T22:00:28.658Z,99752.56
2022-09-07T22:02:56.090Z,99751.28
2022-09-07T22:05:23.783Z,99756.59
2022-09-07T22:07:51.183Z,99758.22
2022-09-07T22:10:18.580Z,99764.34
2022-09-07T22:12:45.794Z,99758.78
2022-09-07T22:15:12.950Z,99755.34
2022-09-07T22:17:43.335Z,99763.72
2022-09-07T22:20:13.317Z,99765.09
2022-09-07T22:22:40.716Z,99765.34
2022-09-07T22:25:08.080Z,99764.56
2022-09-07T22:27:35.244Z,99764.09
2022-09-07T22:30:02.635Z,99764.44
2022-09-07T22:32:29.806Z,99751.59
2022-09-07T22:34:56.946Z,99752.25
2022-09-07T22:37:24.718Z,99755.34
2022-09-07T22:39:52.001Z,99754.47
2022-09-07T22:42:19.196Z,99755.13
2022-09-07T22:44:47.578Z,99754.53
2022-09-07T22:47:15.633Z,99746.19
2022-09-07T22:49:42.772Z,99751.97
2022-09-07T22:52:10.215Z,99740.22
2022-09-07T22:54:37.365Z,99744.66
2022-09-07T22:57:04.520Z,99739.16
2022-09-07T22:59:31.919Z,99727.56
2022-09-07T23:01:59.051Z,99722.06
2022-09-07T23:04:29.825Z,99724.47
2022-09-07T23:06:59.078Z,99723.75
2022-09-07T23:09:26.850Z,99722.50
2022-09-07T23:11:54.190Z,99723.59
2022-09-07T23:14:24.560Z,99721.25
2022-09-07T23:16:51.674Z,99714.78
2022-09-07T23:19:20.540Z,99711.72
2022-09-07T23:21:48.018Z,99712.97
2022-09-07T23:24:16.118Z,99708.53
2022-09-07T23:26:43.821Z,99709.50
2022-09-07T23:29:11.718Z,99710.47
2022-09-07T23:31:40.246Z,99698.63
2022-09-07T23:34:07.820Z,99691.94
2022-09-07T23:36:35.263Z,99686.16
2022-09-07T23:39:02.428Z,99684.41
2022-09-07T23:41:30.265Z,99686.78
2022-09-07T23:43:57.998Z,99684.59
2022-09-07T23:46:25.202Z,99678.53
2022-09-07T23:48:52.375Z,99675.19
2022-09-07T23:51:24.257Z,99683.66
2022-09-07T23:53:52.459Z,99678.88
2022-09-07T23:56:20.191Z,99676.88
2022-09-07T23:58:48.199Z,99680.19
